Time;durP1;ratioP1;P1;durP2;ratioP2;P2;SDS_P1;SDS_P2;PMS_P1;PMS_P2;Temp;Humidity;BMP_temperature;BMP_pressure;BME280_temperature;BME280_humidity;BME280_pressure;Samples;Min_cycle;Max_cycle;Signal;HPM_P1;HPM_P2
2023/11/22 00:01:38;;;;;;;0.20;0.00;;;;;;;;;;5013705;28;20033;-83
2023/11/22 00:04:05;;;;;;;0.20;0.10;;;;;;;;;;5011742;28;20095;-81
2023/11/22 00:06:31;;;;;;;0.20;0.00;;;;;;;;;;5014678;28;20041;-82
2023/11/22 00:08:57;;;;;;;0.20;0.10;;;;;;;;;;5034327;28;20037;-82
2023/11/22 00:11:24;;;;;;;0.20;0.10;;;;;;;;;;5016840;28;20045;-83
2023/11/22 00:13:55;;;;;;;0.20;0.10;;;;;;;;;;5032088;28;20076;-83
2023/11/22 00:16:21;;;;;;;0.85;0.47;;;;;;;;;;5021059;28;20049;-81
2023/11/22 00:18:47;;;;;;;0.20;0.10;;;;;;;;;;5021528;28;20049;-81
2023/11/22 00:21:13;;;;;;;0.20;0.10;;;;;;;;;;5022044;28;20044;-82
2023/11/22 00:23:39;;;;;;;0.30;0.20;;;;;;;;;;5042983;28;20033;-80
2023/11/22 00:26:06;;;;;;;0.20;0.00;;;;;;;;;;5047119;28;20033;-80
2023/11/22 00:28:32;;;;;;;0.20;0.10;;;;;;;;;;5055760;28;20052;-82
2023/11/22 00:30:58;;;;;;;0.20;0.00;;;;;;;;;;5054855;28;20124;-81
2023/11/22 00:33:25;;;;;;;0.43;0.30;;;;;;;;;;5052560;28;20061;-82
2023/11/22 00:35:53;;;;;;;0.20;0.10;;;;;;;;;;5035089;28;20084;-81
2023/11/22 00:38:19;;;;;;;0.20;0.00;;;;;;;;;;5052354;28;20104;-81
2023/11/22 00:40:45;;;;;;;0.20;0.10;;;;;;;;;;5051251;28;20036;-81
2023/11/22 00:43:11;;;;;;;0.20;0.00;;;;;;;;;;5024899;28;20040;-82
2023/11/22 00:45:37;;;;;;;0.20;0.10;;;;;;;;;;5040960;28;20098;-82
2023/11/22 00:48:03;;;;;;;0.20;0.00;;;;;;;;;;5027292;28;20041;-82
2023/11/22 00:50:29;;;;;;;0.20;0.10;;;;;;;;;;5046811;28;20131;-81
2023/11/22 00:52:55;;;;;;;0.20;0.10;;;;;;;;;;5021853;28;20048;-81
2023/11/22 00:55:21;;;;;;;0.20;0.10;;;;;;;;;;5020698;28;20037;-82
2023/11/22 00:57:47;;;;;;;0.32;0.25;;;;;;;;;;5026285;28;20705;-81
2023/11/22 01:00:15;;;;;;;0.20;0.00;;;;;;;;;;5039788;28;20052;-82
2023/11/22 01:02:41;;;;;;;0.20;0.03;;;;;;;;;;5023451;28;20033;-81
2023/11/22 01:05:15;;;;;;;0.20;0.10;;;;;;;;;;5016932;28;20760;-82
2023/11/22 01:07:41;;;;;;;0.20;0.00;;;;;;;;;;5017187;28;20029;-81
2023/11/22 01:10:08;;;;;;;0.50;0.45;;;;;;;;;;5036647;28;20151;-82
2023/11/22 01:12:34;;;;;;;0.20;0.10;;;;;;;;;;5018266;28;20037;-82
2023/11/22 01:15:00;;;;;;;0.20;0.05;;;;;;;;;;5024180;28;20038;-81
2023/11/22 01:17:26;;;;;;;0.20;0.00;;;;;;;;;;5019123;28;20056;-82
2023/11/22 01:19:52;;;;;;;0.20;0.05;;;;;;;;;;5015067;28;20513;-82
2023/11/22 01:22:18;;;;;;;0.20;0.10;;;;;;;;;;5022800;28;20050;-82
2023/11/22 01:24:44;;;;;;;0.20;0.10;;;;;;;;;;5020110;28;20511;-82
2023/11/22 01:27:10;;;;;;;0.20;0.17;;;;;;;;;;5015188;28;20066;-82
2023/11/22 01:29:36;;;;;;;0.55;0.28;;;;;;;;;;5020528;28;20033;-82
2023/11/22 01:32:02;;;;;;;0.20;0.10;;;;;;;;;;5033839;28;20405;-82
2023/11/22 01:34:29;;;;;;;0.20;0.08;;;;;;;;;;5024432;28;20048;-82
2023/11/22 01:36:55;;;;;;;0.20;0.10;;;;;;;;;;5022896;28;20412;-82
2023/11/22 01:39:21;;;;;;;0.20;0.10;;;;;;;;;;5017259;28;20051;-81
2023/11/22 01:41:49;;;;;;;0.20;0.10;;;;;;;;;;5016501;28;20670;-81
2023/11/22 01:44:15;;;;;;;0.20;0.10;;;;;;;;;;5014208;28;20038;-82
2023/11/22 01:46:41;;;;;;;0.20;0.08;;;;;;;;;;5032536;28;20552;-81
2023/11/22 01:49:09;;;;;;;0.20;0.00;;;;;;;;;;5021641;28;20136;-81
2023/11/22 01:51:36;;;;;;;0.20;0.00;;;;;;;;;;5019483;28;20060;-82
2023/11/22 01:54:02;;;;;;;0.20;0.10;;;;;;;;;;5038355;28;20045;-81
2023/11/22 01:56:28;;;;;;;0.20;0.10;;;;;;;;;;5018288;28;20040;-82
2023/11/22 01:58:56;;;;;;;0.20;0.00;;;;;;;;;;5020721;28;20033;-81
2023/11/22 02:01:22;;;;;;;0.20;0.20;;;;;;;;;;5015530;28;20785;-82
2023/11/22 02:03:48;;;;;;;0.40;0.17;;;;;;;;;;5038039;28;20125;-82
2023/11/22 02:06:16;;;;;;;0.20;0.00;;;;;;;;;;5014806;28;20064;-81
2023/11/22 02:08:42;;;;;;;0.20;0.10;;;;;;;;;;5014705;28;20043;-82
2023/11/22 02:11:09;;;;;;;0.20;0.00;;;;;;;;;;5033035;28;20084;-82
2023/11/22 02:13:36;;;;;;;0.20;0.10;;;;;;;;;;5015801;28;20037;-81
2023/11/22 02:16:02;;;;;;;0.20;0.10;;;;;;;;;;5023899;28;20037;-81
2023/11/22 02:18:28;;;;;;;0.20;0.20;;;;;;;;;;5017195;28;20120;-81
2023/11/22 02:20:54;;;;;;;0.20;0.00;;;;;;;;;;5019254;28;20037;-82
2023/11/22 02:23:20;;;;;;;0.20;0.10;;;;;;;;;;5014765;28;20040;-81
2023/11/22 02:25:46;;;;;;;0.20;0.10;;;;;;;;;;5023667;28;20776;-81
2023/11/22 02:28:13;;;;;;;0.20;0.10;;;;;;;;;;5035967;28;20044;-81
2023/11/22 02:30:39;;;;;;;1.55;0.32;;;;;;;;;;5017274;28;20037;-81
2023/11/22 02:33:05;;;;;;;0.22;0.22;;;;;;;;;;5018489;28;20103;-81
2023/11/22 02:35:31;;;;;;;0.20;0.00;;;;;;;;;;5018303;28;20047;-81
2023/11/22 02:37:59;;;;;;;0.20;0.20;;;;;;;;;;5036932;28;20037;-81
2023/11/22 02:40:25;;;;;;;0.20;0.05;;;;;;;;;;5014144;28;20041;-82
2023/11/22 02:42:52;;;;;;;0.20;0.08;;;;;;;;;;5016320;28;20497;-82
2023/11/22 02:45:19;;;;;;;0.20;0.00;;;;;;;;;;5035808;28;20060;-82
2023/11/22 02:47:46;;;;;;;0.20;0.10;;;;;;;;;;5019609;28;20136;-84
2023/11/22 02:50:13;;;;;;;0.20;0.08;;;;;;;;;;5022400;28;20095;-82
2023/11/22 02:52:39;;;;;;;0.20;0.10;;;;;;;;;;5013642;28;20056;-81
2023/11/22 02:55:05;;;;;;;0.20;0.10;;;;;;;;;;5018845;28;20040;-82
2023/11/22 02:57:31;;;;;;;0.25;0.20;;;;;;;;;;5040066;28;20597;-82
2023/11/22 02:59:58;;;;;;;0.20;0.10;;;;;;;;;;5022935;28;20119;-81
2023/11/22 03:02:24;;;;;;;0.20;0.10;;;;;;;;;;5021190;28;20033;-82
2023/11/22 03:04:53;;;;;;;0.20;0.10;;;;;;;;;;5042940;28;20032;-81
2023/11/22 03:07:20;;;;;;;0.20;0.10;;;;;;;;;;5016714;28;20041;-82
2023/11/22 03:09:46;;;;;;;0.52;0.28;;;;;;;;;;5016332;28;20106;-81
2023/11/22 03:12:13;;;;;;;0.80;0.43;;;;;;;;;;5026069;28;20055;-81
2023/11/22 03:14:39;;;;;;;0.20;0.10;;;;;;;;;;5017299;28;20052;-81
2023/11/22 03:17:05;;;;;;;0.20;0.00;;;;;;;;;;5020742;28;20044;-81
2023/11/22 03:19:33;;;;;;;0.20;0.10;;;;;;;;;;5013546;28;20033;-81
2023/11/22 03:22:00;;;;;;;0.20;0.00;;;;;;;;;;5012113;28;20086;-81
2023/11/22 03:24:26;;;;;;;0.20;0.00;;;;;;;;;;5012695;28;20482;-83
2023/11/22 03:26:52;;;;;;;0.30;0.30;;;;;;;;;;5015657;28;20131;-82
2023/11/22 03:29:18;;;;;;;0.60;0.57;;;;;;;;;;5022460;28;20075;-81
2023/11/22 03:31:46;;;;;;;0.20;0.10;;;;;;;;;;5037257;28;20037;-82
2023/11/22 03:34:13;;;;;;;0.20;0.10;;;;;;;;;;5013548;28;20091;-81
2023/11/22 03:36:41;;;;;;;0.20;0.10;;;;;;;;;;5024563;28;20048;-81
2023/11/22 03:39:07;;;;;;;0.75;0.75;;;;;;;;;;5015043;28;20042;-81
2023/11/22 03:41:33;;;;;;;0.20;0.10;;;;;;;;;;5018127;28;20037;-81
2023/11/22 03:43:59;;;;;;;0.20;0.10;;;;;;;;;;5017737;28;20063;-81
2023/11/22 03:46:25;;;;;;;0.65;0.40;;;;;;;;;;5018977;28;20033;-85
2023/11/22 03:48:51;;;;;;;0.20;0.10;;;;;;;;;;5012953;28;20052;-81
2023/11/22 03:51:17;;;;;;;0.20;0.00;;;;;;;;;;5017449;28;20890;-81
2023/11/22 03:53:43;;;;;;;0.20;0.10;;;;;;;;;;5020306;28;20107;-81
2023/11/22 03:56:09;;;;;;;0.20;0.10;;;;;;;;;;5028581;28;20033;-81
2023/11/22 03:58:36;;;;;;;0.20;0.10;;;;;;;;;;5024370;28;20075;-80
2023/11/22 04:01:02;;;;;;;0.20;0.10;;;;;;;;;;5024854;28;20068;-81
2023/11/22 04:03:28;;;;;;;0.20;0.00;;;;;;;;;;5041291;28;20037;-81
2023/11/22 04:05:54;;;;;;;0.20;0.00;;;;;;;;;;5024661;28;20455;-81
2023/11/22 04:08:20;;;;;;;0.20;0.00;;;;;;;;;;5024696;28;20098;-81
2023/11/22 04:10:47;;;;;;;0.20;0.10;;;;;;;;;;5022453;28;20045;-80
2023/11/22 04:13:13;;;;;;;0.20;0.05;;;;;;;;;;5024489;28;20630;-81
2023/11/22 04:15:40;;;;;;;0.40;0.40;;;;;;;;;;5024847;28;20042;-81
2023/11/22 04:18:06;;;;;;;0.20;0.00;;;;;;;;;;5042075;28;20304;-81
2023/11/22 04:20:32;;;;;;;0.20;0.10;;;;;;;;;;5021366;28;20037;-80
2023/11/22 04:22:58;;;;;;;0.20;0.10;;;;;;;;;;5042151;28;20048;-84
2023/11/22 04:25:24;;;;;;;0.20;0.10;;;;;;;;;;5016225;28;20041;-81
2023/11/22 04:27:50;;;;;;;0.20;0.10;;;;;;;;;;5040587;28;20546;-81
2023/11/22 04:30:17;;;;;;;0.20;0.00;;;;;;;;;;5048426;28;20645;-81
2023/11/22 04:32:44;;;;;;;0.20;0.00;;;;;;;;;;5023725;28;20037;-82
2023/11/22 04:35:10;;;;;;;0.20;0.10;;;;;;;;;;5028542;28;20504;-81
2023/11/22 04:37:36;;;;;;;0.20;0.00;;;;;;;;;;5042118;28;20459;-82
2023/11/22 04:40:05;;;;;;;0.20;0.10;;;;;;;;;;5025522;28;20045;-81
2023/11/22 04:42:31;;;;;;;0.20;0.10;;;;;;;;;;5038021;28;20069;-82
2023/11/22 04:44:57;;;;;;;0.20;0.10;;;;;;;;;;5022604;28;20140;-82
2023/11/22 04:47:23;;;;;;;0.20;0.00;;;;;;;;;;5025176;28;20043;-81
2023/11/22 04:49:49;;;;;;;0.20;0.10;;;;;;;;;;5017755;28;20034;-82
2023/11/22 04:52:16;;;;;;;1.15;0.32;;;;;;;;;;5018834;28;20049;-83
2023/11/22 04:54:42;;;;;;;0.20;0.10;;;;;;;;;;5026792;28;20835;-82
2023/11/22 04:57:08;;;;;;;0.20;0.10;;;;;;;;;;5016080;28;20128;-82
2023/11/22 04:59:34;;;;;;;0.20;0.10;;;;;;;;;;5041392;28;20037;-82
2023/11/22 05:02:00;;;;;;;0.20;0.10;;;;;;;;;;5020343;28;20036;-82
2023/11/22 05:04:26;;;;;;;0.28;0.20;;;;;;;;;;5016522;28;20044;-82
2023/11/22 05:06:52;;;;;;;0.20;0.10;;;;;;;;;;5023496;28;20428;-82
2023/11/22 05:09:19;;;;;;;0.20;0.10;;;;;;;;;;5025873;28;20110;-82
2023/11/22 05:11:45;;;;;;;0.20;0.13;;;;;;;;;;5025157;28;20041;-82
2023/11/22 05:14:13;;;;;;;0.20;0.00;;;;;;;;;;5040017;28;20036;-81
2023/11/22 05:16:39;;;;;;;0.20;0.10;;;;;;;;;;5037920;28;20037;-82
2023/11/22 05:19:05;;;;;;;0.20;0.00;;;;;;;;;;5032841;28;20059;-81
2023/11/22 05:21:32;;;;;;;0.50;0.32;;;;;;;;;;5038580;28;20082;-82
2023/11/22 05:23:58;;;;;;;0.20;0.00;;;;;;;;;;5032667;28;20037;-82
2023/11/22 05:26:25;;;;;;;0.20;0.10;;;;;;;;;;5037654;28;20072;-82
2023/11/22 05:28:53;;;;;;;0.20;0.00;;;;;;;;;;5029580;28;20047;-82
2023/11/22 05:31:20;;;;;;;0.20;0.10;;;;;;;;;;5033306;28;20497;-85
2023/11/22 05:33:46;;;;;;;0.20;0.00;;;;;;;;;;5045423;28;20044;-83
2023/11/22 05:36:12;;;;;;;0.20;0.10;;;;;;;;;;5047167;28;20099;-82
2023/11/22 05:38:39;;;;;;;0.20;0.10;;;;;;;;;;5031728;28;20414;-82
2023/11/22 05:41:05;;;;;;;0.20;0.10;;;;;;;;;;5030261;28;20033;-82
2023/11/22 05:43:31;;;;;;;0.20;0.10;;;;;;;;;;5042776;28;20025;-82
2023/11/22 05:45:57;;;;;;;0.20;0.05;;;;;;;;;;5044447;28;20045;-82
2023/11/22 05:48:23;;;;;;;0.20;0.20;;;;;;;;;;5020721;28;20044;-82
2023/11/22 05:50:49;;;;;;;0.20;0.03;;;;;;;;;;5025780;28;20091;-82
2023/11/22 05:53:19;;;;;;;0.20;0.00;;;;;;;;;;5029273;28;20037;-82
2023/11/22 05:55:48;;;;;;;0.20;0.00;;;;;;;;;;5033688;28;20083;-82
2023/11/22 05:58:18;;;;;;;0.22;0.15;;;;;;;;;;5049337;28;20101;-81
2023/11/22 06:00:45;;;;;;;0.20;0.10;;;;;;;;;;5045367;28;20032;-81
2023/11/22 06:03:11;;;;;;;0.20;0.00;;;;;;;;;;5025513;28;20060;-81
2023/11/22 06:05:37;;;;;;;0.20;0.00;;;;;;;;;;5046031;28;20045;-82
2023/11/22 06:08:03;;;;;;;0.20;0.10;;;;;;;;;;5021897;28;20098;-81
2023/11/22 06:10:29;;;;;;;0.20;0.00;;;;;;;;;;5029461;28;20094;-81
2023/11/22 06:12:56;;;;;;;0.20;0.00;;;;;;;;;;5047585;28;20045;-83
2023/11/22 06:15:23;;;;;;;0.20;0.00;;;;;;;;;;5045216;28;20245;-81
2023/11/22 06:17:49;;;;;;;0.20;0.10;;;;;;;;;;5029583;28;20056;-82
2023/11/22 06:20:16;;;;;;;0.20;0.10;;;;;;;;;;5035289;28;20123;-81
2023/11/22 06:22:42;;;;;;;0.20;0.10;;;;;;;;;;5035380;28;20040;-82
2023/11/22 06:25:12;;;;;;;0.20;0.10;;;;;;;;;;5030300;28;20075;-82
2023/11/22 06:27:38;;;;;;;0.20;0.13;;;;;;;;;;5020785;28;20383;-82
2023/11/22 06:30:06;;;;;;;0.20;0.10;;;;;;;;;;5033040;28;20712;-82
2023/11/22 06:32:32;;;;;;;0.20;0.10;;;;;;;;;;5020412;28;20033;-81
2023/11/22 06:34:58;;;;;;;0.20;0.03;;;;;;;;;;5032027;28;20037;-82
2023/11/22 06:37:24;;;;;;;0.20;0.10;;;;;;;;;;5027987;28;20528;-81
2023/11/22 06:39:50;;;;;;;0.20;0.10;;;;;;;;;;5028634;28;20029;-82
2023/11/22 06:42:17;;;;;;;0.20;0.10;;;;;;;;;;5028668;28;20513;-81
2023/11/22 06:44:43;;;;;;;0.20;0.10;;;;;;;;;;5046055;28;20040;-83
2023/11/22 06:47:09;;;;;;;0.20;0.00;;;;;;;;;;5045406;28;20599;-86
2023/11/22 06:49:35;;;;;;;0.20;0.20;;;;;;;;;;5022958;28;20696;-81
2023/11/22 06:52:01;;;;;;;0.20;0.10;;;;;;;;;;5030285;28;20059;-81
2023/11/22 06:54:27;;;;;;;0.68;0.20;;;;;;;;;;5022852;28;20612;-81
2023/11/22 06:56:53;;;;;;;0.20;0.10;;;;;;;;;;5042675;28;20069;-82
2023/11/22 06:59:19;;;;;;;0.20;0.10;;;;;;;;;;5019061;28;20029;-82
2023/11/22 07:01:45;;;;;;;0.20;0.10;;;;;;;;;;5026185;28;20040;-81
2023/11/22 07:04:11;;;;;;;0.20;0.10;;;;;;;;;;5026323;28;20049;-82
2023/11/22 07:06:37;;;;;;;0.20;0.10;;;;;;;;;;5032072;28;20326;-81
2023/11/22 07:09:04;;;;;;;0.20;0.20;;;;;;;;;;5023531;28;20055;-81
2023/11/22 07:11:31;;;;;;;0.28;0.25;;;;;;;;;;5032865;28;20037;-81
2023/11/22 07:13:57;;;;;;;0.20;0.10;;;;;;;;;;5049593;28;20121;-81
2023/11/22 07:16:24;;;;;;;0.75;0.47;;;;;;;;;;5043733;28;20044;-81
2023/11/22 07:18:50;;;;;;;0.20;0.10;;;;;;;;;;5025457;28;20037;-82
2023/11/22 07:21:17;;;;;;;0.30;0.25;;;;;;;;;;5031977;28;20041;-80
2023/11/22 07:23:45;;;;;;;0.20;0.08;;;;;;;;;;5043035;28;20033;-80
2023/11/22 07:26:13;;;;;;;0.20;0.00;;;;;;;;;;5020374;28;20662;-80
2023/11/22 07:28:40;;;;;;;0.20;0.10;;;;;;;;;;5023063;28;20044;-82
2023/11/22 07:31:07;;;;;;;0.20;0.10;;;;;;;;;;5028465;28;20040;-84
2023/11/22 07:33:34;;;;;;;0.20;0.00;;;;;;;;;;5032092;28;20567;-87
2023/11/22 07:36:00;;;;;;;0.20;0.10;;;;;;;;;;5023376;28;20037;-82
2023/11/22 07:38:27;;;;;;;0.20;0.10;;;;;;;;;;5029029;28;20585;-81
2023/11/22 07:40:53;;;;;;;0.20;0.00;;;;;;;;;;5018867;28;20041;-82
2023/11/22 07:43:19;;;;;;;0.20;0.03;;;;;;;;;;5036623;28;20513;-81
2023/11/22 07:45:45;;;;;;;0.20;0.10;;;;;;;;;;5019822;28;20037;-83
2023/11/22 07:48:13;;;;;;;0.20;0.10;;;;;;;;;;5042447;28;20033;-80
2023/11/22 07:50:39;;;;;;;0.20;0.00;;;;;;;;;;5033341;28;20048;-80
2023/11/22 07:53:05;;;;;;;0.20;0.10;;;;;;;;;;5039809;28;20112;-80
2023/11/22 07:55:31;;;;;;;0.20;0.10;;;;;;;;;;5038038;28;20521;-80
2023/11/22 07:57:58;;;;;;;0.20;0.20;;;;;;;;;;5018822;28;20609;-81
2023/11/22 08:00:24;;;;;;;0.20;0.10;;;;;;;;;;5018062;28;20451;-81
2023/11/22 08:02:50;;;;;;;0.20;0.10;;;;;;;;;;5013474;28;20040;-81
2023/11/22 08:05:17;;;;;;;0.28;0.20;;;;;;;;;;5024086;28;20644;-81
2023/11/22 08:07:45;;;;;;;0.20;0.10;;;;;;;;;;5042401;28;20088;-82
2023/11/22 08:10:21;;;;;;;0.20;0.00;;;;;;;;;;5021433;28;20535;-82
2023/11/22 08:12:49;;;;;;;0.20;0.10;;;;;;;;;;5024850;28;20068;-81
2023/11/22 08:15:16;;;;;;;0.20;0.08;;;;;;;;;;5038673;28;20116;-81
2023/11/22 08:17:46;;;;;;;0.20;0.10;;;;;;;;;;5023640;28;20044;-82
2023/11/22 08:20:13;;;;;;;0.20;0.10;;;;;;;;;;5039097;28;20049;-82
2023/11/22 08:22:40;;;;;;;0.20;0.10;;;;;;;;;;5024519;28;20489;-82
2023/11/22 08:25:08;;;;;;;0.20;0.10;;;;;;;;;;5038314;28;20034;-83
2023/11/22 08:27:34;;;;;;;0.38;0.25;;;;;;;;;;5023952;28;20132;-81
2023/11/22 08:30:04;;;;;;;0.30;0.30;;;;;;;;;;5025334;28;20045;-82
2023/11/22 08:32:34;;;;;;;0.45;0.22;;;;;;;;;;5025065;28;20132;-80
2023/11/22 08:35:00;;;;;;;0.20;0.10;;;;;;;;;;5011935;28;20037;-82
2023/11/22 08:37:26;;;;;;;0.52;0.22;;;;;;;;;;5020999;28;20077;-82
2023/11/22 08:39:52;;;;;;;0.32;0.20;;;;;;;;;;5023640;28;20041;-85
2023/11/22 08:42:18;;;;;;;0.20;0.10;;;;;;;;;;5041807;28;20065;-82
2023/11/22 08:44:45;;;;;;;0.20;0.00;;;;;;;;;;5046168;28;20382;-81
2023/11/22 08:47:13;;;;;;;0.20;0.10;;;;;;;;;;5029673;28;20124;-82
2023/11/22 08:49:41;;;;;;;0.60;0.45;;;;;;;;;;5025134;28;20037;-81
2023/11/22 08:52:07;;;;;;;0.20;0.10;;;;;;;;;;5030076;28;20045;-82
2023/11/22 08:54:33;;;;;;;0.20;0.00;;;;;;;;;;5045713;28;20576;-81
2023/11/22 08:57:00;;;;;;;0.20;0.10;;;;;;;;;;5030061;28;20409;-80
2023/11/22 08:59:29;;;;;;;0.20;0.10;;;;;;;;;;5027763;28;20045;-84
2023/11/22 09:01:55;;;;;;;0.20;0.10;;;;;;;;;;5030151;28;20033;-82
2023/11/22 09:04:24;;;;;;;0.20;0.10;;;;;;;;;;5048122;28;20037;-81
2023/11/22 09:06:50;;;;;;;0.20;0.10;;;;;;;;;;5032703;28;20037;-83
2023/11/22 09:09:16;;;;;;;0.20;0.10;;;;;;;;;;5051164;28;20052;-80
2023/11/22 09:11:42;;;;;;;0.20;0.00;;;;;;;;;;5033505;28;20811;-82
2023/11/22 09:14:10;;;;;;;0.20;0.00;;;;;;;;;;5031012;28;20083;-81
2023/11/22 09:16:39;;;;;;;0.35;0.35;;;;;;;;;;5045505;28;20045;-82
2023/11/22 09:19:06;;;;;;;0.20;0.00;;;;;;;;;;5042125;28;20048;-82
2023/11/22 09:21:32;;;;;;;0.20;0.03;;;;;;;;;;5032166;28;20040;-81
2023/11/22 09:23:59;;;;;;;0.20;0.10;;;;;;;;;;5030909;28;20033;-82
2023/11/22 09:26:25;;;;;;;0.20;0.10;;;;;;;;;;5041106;28;20080;-83
2023/11/22 09:28:51;;;;;;;0.20;0.13;;;;;;;;;;5041291;28;20076;-81
2023/11/22 09:31:20;;;;;;;0.20;0.10;;;;;;;;;;5042832;28;20044;-82
2023/11/22 09:33:49;;;;;;;0.20;0.10;;;;;;;;;;5028825;28;20048;-80
2023/11/22 09:36:16;;;;;;;0.20;0.10;;;;;;;;;;5040951;28;20045;-84
2023/11/22 09:38:42;;;;;;;0.20;0.10;;;;;;;;;;5015092;28;20037;-82
2023/11/22 09:41:09;;;;;;;0.20;0.03;;;;;;;;;;5019121;28;20065;-83
2023/11/22 09:43:35;;;;;;;0.20;0.10;;;;;;;;;;5020258;28;20106;-83
2023/11/22 09:46:01;;;;;;;0.20;0.10;;;;;;;;;;5042098;28;20554;-84
2023/11/22 09:48:27;;;;;;;0.20;0.10;;;;;;;;;;5040512;28;20041;-82
2023/11/22 09:51:17;;;;;;;0.20;0.10;;;;;;;;;;5022839;28;21445;-83
2023/11/22 09:53:44;;;;;;;0.20;0.00;;;;;;;;;;5024052;28;20045;-82
2023/11/22 09:56:13;;;;;;;0.20;0.10;;;;;;;;;;5041988;28;20114;-82
2023/11/22 09:58:44;;;;;;;0.20;0.20;;;;;;;;;;5023725;28;20040;-81
2023/11/22 10:01:13;;;;;;;0.20;0.00;;;;;;;;;;5030686;28;20033;-82
2023/11/22 10:03:39;;;;;;;0.20;0.10;;;;;;;;;;5033729;28;20104;-85
2023/11/22 10:06:06;;;;;;;0.20;0.10;;;;;;;;;;5027521;28;20059;-84
2023/11/22 10:08:32;;;;;;;0.20;0.00;;;;;;;;;;5038040;28;20038;-86
2023/11/22 10:10:59;;;;;;;0.20;0.10;;;;;;;;;;5051149;28;20163;-83
2023/11/22 10:13:25;;;;;;;0.20;0.08;;;;;;;;;;5045418;28;20092;-82
2023/11/22 10:15:52;;;;;;;0.30;0.30;;;;;;;;;;5052070;28;20033;-82
2023/11/22 10:18:20;;;;;;;0.20;0.10;;;;;;;;;;5025341;28;20046;-84
2023/11/22 10:20:49;;;;;;;0.20;0.10;;;;;;;;;;5025358;28;20638;-83
2023/11/22 10:23:16;;;;;;;0.20;0.00;;;;;;;;;;5023798;28;20033;-82
2023/11/22 10:25:45;;;;;;;0.20;0.10;;;;;;;;;;5027946;28;20522;-82
2023/11/22 10:28:12;;;;;;;0.20;0.08;;;;;;;;;;5028219;28;20100;-83
2023/11/22 10:30:40;;;;;;;0.20;0.10;;;;;;;;;;5031710;28;20044;-81
2023/11/22 10:33:06;;;;;;;0.20;0.10;;;;;;;;;;5024251;28;20074;-82
2023/11/22 10:35:32;;;;;;;0.20;0.10;;;;;;;;;;5036519;28;20156;-82
2023/11/22 10:38:06;;;;;;;0.20;0.00;;;;;;;;;;5035174;28;20128;-84
2023/11/22 10:40:32;;;;;;;0.20;0.10;;;;;;;;;;5035791;28;20595;-85
2023/11/22 10:42:58;;;;;;;0.20;0.10;;;;;;;;;;5029791;28;20047;-82
2023/11/22 10:45:26;;;;;;;0.20;0.20;;;;;;;;;;5042083;28;20047;-82
2023/11/22 10:47:54;;;;;;;0.20;0.10;;;;;;;;;;5042390;28;20044;-83
2023/11/22 10:50:22;;;;;;;0.20;0.10;;;;;;;;;;5022440;28;20032;-85
2023/11/22 10:52:55;;;;;;;0.20;0.00;;;;;;;;;;5022825;28;20041;-85
2023/11/22 10:55:22;;;;;;;0.20;0.10;;;;;;;;;;5020025;28;20044;-84
2023/11/22 10:57:51;;;;;;;0.20;0.08;;;;;;;;;;5028195;28;20057;-84
2023/11/22 11:00:22;;;;;;;0.20;0.10;;;;;;;;;;5025836;28;20045;-86
2023/11/22 11:02:51;;;;;;;0.20;0.10;;;;;;;;;;5030195;28;20033;-84
2023/11/22 11:05:20;;;;;;;0.20;0.10;;;;;;;;;;5025179;28;20136;-84
2023/11/22 11:07:51;;;;;;;0.20;0.10;;;;;;;;;;5018808;28;20040;-84
2023/11/22 11:10:17;;;;;;;0.20;0.10;;;;;;;;;;5024046;28;20045;-84
2023/11/22 11:12:45;;;;;;;0.40;0.40;;;;;;;;;;5028269;28;20043;-86
2023/11/22 11:15:12;;;;;;;0.28;0.17;;;;;;;;;;5016751;28;20486;-84
2023/11/22 11:17:39;;;;;;;0.20;0.10;;;;;;;;;;5035847;28;20086;-85
2023/11/22 11:20:09;;;;;;;0.20;0.13;;;;;;;;;;5044031;28;20048;-85
2023/11/22 11:22:36;;;;;;;0.20;0.10;;;;;;;;;;5016180;28;20662;-86
2023/11/22 11:25:04;;;;;;;0.20;0.10;;;;;;;;;;5023791;28;20409;-84
2023/11/22 11:27:35;;;;;;;0.20;0.00;;;;;;;;;;5015044;28;20033;-87
2023/11/22 11:30:01;;;;;;;0.20;0.00;;;;;;;;;;5025987;28;20052;-86
2023/11/22 11:32:34;;;;;;;0.20;0.10;;;;;;;;;;5041059;28;20098;-85
2023/11/22 11:35:06;;;;;;;0.20;0.17;;;;;;;;;;5019525;28;20039;-86
2023/11/22 11:37:40;;;;;;;1.95;0.55;;;;;;;;;;5013968;28;20052;-86
2023/11/22 11:40:26;;;;;;;0.20;0.10;;;;;;;;;;5011413;28;20298;-86
2023/11/22 11:42:53;;;;;;;0.20;0.10;;;;;;;;;;5024764;28;20038;-87
2023/11/22 11:45:20;;;;;;;0.20;0.13;;;;;;;;;;5017946;28;20117;-84
2023/11/22 11:47:46;;;;;;;0.45;0.45;;;;;;;;;;5020944;28;20048;-84
2023/11/22 11:50:12;;;;;;;0.20;0.10;;;;;;;;;;5024698;28;20041;-85
2023/11/22 11:52:40;;;;;;;0.20;0.10;;;;;;;;;;5037529;28;20079;-85
2023/11/22 11:55:06;;;;;;;0.20;0.10;;;;;;;;;;5025345;28;20055;-85
2023/11/22 11:57:32;;;;;;;3.72;0.65;;;;;;;;;;5036792;28;20427;-85
2023/11/22 11:59:59;;;;;;;0.20;0.10;;;;;;;;;;5022787;28;20040;-85
2023/11/22 12:02:25;;;;;;;0.25;0.10;;;;;;;;;;5025410;28;20044;-86
2023/11/22 12:04:54;;;;;;;0.40;0.30;;;;;;;;;;5044159;28;20521;-87
2023/11/22 12:07:20;;;;;;;0.20;0.10;;;;;;;;;;5038758;28;20133;-84
2023/11/22 12:09:47;;;;;;;0.20;0.10;;;;;;;;;;5023540;28;20073;-85
2023/11/22 12:12:13;;;;;;;0.20;0.05;;;;;;;;;;5042322;28;20064;-87
2023/11/22 12:14:39;;;;;;;0.57;0.45;;;;;;;;;;5025668;28;20091;-83
2023/11/22 12:17:07;;;;;;;0.38;0.38;;;;;;;;;;5026495;28;20092;-82
2023/11/22 12:19:34;;;;;;;0.20;0.03;;;;;;;;;;5017488;28;20557;-80
2023/11/22 12:22:00;;;;;;;0.20;0.10;;;;;;;;;;5025125;28;20041;-81
2023/11/22 12:24:27;;;;;;;3.03;1.08;;;;;;;;;;5028213;28;20045;-84
2023/11/22 12:26:55;;;;;;;0.20;0.10;;;;;;;;;;5028420;28;20661;-84
2023/11/22 12:29:23;;;;;;;1.05;0.47;;;;;;;;;;5034916;28;20048;-83
2023/11/22 12:31:55;;;;;;;0.20;0.10;;;;;;;;;;5030725;28;20497;-90
2023/11/22 12:34:21;;;;;;;0.20;0.10;;;;;;;;;;5027984;28;20581;-82
2023/11/22 12:36:48;;;;;;;0.20;0.10;;;;;;;;;;5027790;28;20045;-84
2023/11/22 12:39:17;;;;;;;0.20;0.20;;;;;;;;;;5031404;28;20048;-86
2023/11/22 12:41:45;;;;;;;0.20;0.20;;;;;;;;;;5026535;28;20049;-85
2023/11/22 12:44:42;;;;;;;;;;;;;;;;;;;;;
2023/11/22 12:47:12;;;;;;;0.20;0.10;;;;;;;;;;5045500;28;20056;-84
2023/11/22 12:49:49;;;;;;;0.20;0.10;;;;;;;;;;5043987;28;20037;-84
2023/11/22 12:52:18;;;;;;;0.20;0.10;;;;;;;;;;5034511;28;20048;-86
2023/11/22 12:54:50;;;;;;;0.20;0.10;;;;;;;;;;5023251;28;20056;-85
2023/11/22 12:57:16;;;;;;;0.20;0.10;;;;;;;;;;5029888;28;20052;-89
2023/11/22 12:59:46;;;;;;;0.20;0.10;;;;;;;;;;5031846;28;20692;-87
2023/11/22 13:02:12;;;;;;;0.20;0.10;;;;;;;;;;5025425;28;20064;-86
2023/11/22 13:04:38;;;;;;;0.90;0.80;;;;;;;;;;5032086;28;20520;-84
2023/11/22 13:07:04;;;;;;;0.20;0.10;;;;;;;;;;5029462;28;20041;-84
2023/11/22 13:09:32;;;;;;;0.20;0.10;;;;;;;;;;5023155;28;20116;-87
2023/11/22 13:11:58;;;;;;;0.20;0.10;;;;;;;;;;5044707;28;20041;-83
2023/11/22 13:14:26;;;;;;;0.20;0.10;;;;;;;;;;5042880;28;20091;-85
2023/11/22 13:16:55;;;;;;;0.20;0.00;;;;;;;;;;5022180;28;20041;-84
2023/11/22 13:19:24;;;;;;;0.20;0.10;;;;;;;;;;5030097;28;20386;-84
2023/11/22 13:21:53;;;;;;;0.20;0.10;;;;;;;;;;5021151;28;20038;-84
2023/11/22 13:24:20;;;;;;;0.20;0.10;;;;;;;;;;5030948;28;20547;-85
2023/11/22 13:26:46;;;;;;;0.20;0.10;;;;;;;;;;5019593;28;20041;-85
2023/11/22 13:29:12;;;;;;;0.20;0.10;;;;;;;;;;5020363;28;20291;-85
2023/11/22 13:31:41;;;;;;;0.20;0.10;;;;;;;;;;5022276;28;20075;-82
2023/11/22 13:34:07;;;;;;;0.20;0.05;;;;;;;;;;5028896;28;20077;-82
2023/11/22 13:36:33;;;;;;;0.20;0.10;;;;;;;;;;5028130;28;20068;-86
2023/11/22 13:38:59;;;;;;;0.20;0.20;;;;;;;;;;5027391;28;20072;-85
2023/11/22 13:41:25;;;;;;;0.20;0.10;;;;;;;;;;5020999;28;20080;-86
2023/11/22 13:43:55;;;;;;;0.20;0.00;;;;;;;;;;5043735;28;20041;-88
2023/11/22 13:46:21;;;;;;;0.20;0.00;;;;;;;;;;5025687;28;20048;-85
2023/11/22 13:48:53;;;;;;;0.20;0.10;;;;;;;;;;5026819;28;20118;-85
2023/11/22 13:51:20;;;;;;;0.20;0.10;;;;;;;;;;5028408;28;21296;-89
2023/11/22 13:53:52;;;;;;;0.20;0.10;;;;;;;;;;5022943;28;20039;-83
2023/11/22 13:56:19;;;;;;;0.70;0.70;;;;;;;;;;5027245;28;20069;-85
2023/11/22 13:58:45;;;;;;;0.20;0.10;;;;;;;;;;5043420;28;20036;-82
2023/11/22 14:01:16;;;;;;;0.20;0.10;;;;;;;;;;5020199;28;20053;-86
2023/11/22 14:03:42;;;;;;;0.25;0.20;;;;;;;;;;5037823;28;20110;-84
2023/11/22 14:06:16;;;;;;;0.20;0.03;;;;;;;;;;5028706;28;20057;-85
2023/11/22 14:08:43;;;;;;;0.65;0.65;;;;;;;;;;5043484;28;20414;-86
2023/11/22 14:11:09;;;;;;;0.20;0.10;;;;;;;;;;5019461;28;20136;-84
2023/11/22 14:13:35;;;;;;;0.20;0.00;;;;;;;;;;5019059;28;20034;-86
2023/11/22 14:16:13;;;;;;;0.20;0.10;;;;;;;;;;5022477;28;20037;-85
2023/11/22 14:18:39;;;;;;;0.20;0.10;;;;;;;;;;5045163;28;20549;-84
2023/11/22 14:21:11;;;;;;;0.20;0.20;;;;;;;;;;5041372;28;20448;-84
2023/11/22 14:23:37;;;;;;;0.20;0.10;;;;;;;;;;5021039;28;20043;-84
2023/11/22 14:26:08;;;;;;;0.20;0.10;;;;;;;;;;5021477;28;20044;-87
2023/11/22 14:28:42;;;;;;;0.20;0.10;;;;;;;;;;5042636;28;20326;-83
2023/11/22 14:31:17;;;;;;;0.20;0.10;;;;;;;;;;5027276;28;20053;-83
2023/11/22 14:33:48;;;;;;;0.20;0.10;;;;;;;;;;5022013;28;20138;-89
2023/11/22 14:36:14;;;;;;;0.20;0.10;;;;;;;;;;5024419;28;20037;-83
2023/11/22 14:38:43;;;;;;;0.20;0.00;;;;;;;;;;5026869;28;20060;-84
2023/11/22 14:41:12;;;;;;;0.20;0.10;;;;;;;;;;5025460;28;20390;-85
2023/11/22 14:43:38;;;;;;;0.20;0.10;;;;;;;;;;5027114;28;20041;-84